sensor_id;sensor_type;location;lat;lon;timestamp;P1;durP1;ratioP1;P2;durP2;ratioP2
62014;SDS011;47970;52.396;9.586;2022-12-07T00:01:39;21.20;;;8.90;;
62014;SDS011;47970;52.396;9.586;2022-12-07T00:04:05;17.27;;;8.25;;
62014;SDS011;47970;52.396;9.586;2022-12-07T00:06:34;20.30;;;9.52;;
62014;SDS011;47970;52.396;9.586;2022-12-07T00:09:00;17.38;;;8.75;;
62014;SDS011;47970;52.396;9.586;2022-12-07T00:11:25;16.65;;;8.55;;
62014;SDS011;47970;52.396;9.586;2022-12-07T00:13:52;17.67;;;7.35;;
62014;SDS011;47970;52.396;9.586;2022-12-07T00:16:18;15.32;;;7.88;;
62014;SDS011;47970;52.396;9.586;2022-12-07T00:18:43;16.40;;;7.82;;
62014;SDS011;47970;52.396;9.586;2022-12-07T00:21:13;17.00;;;8.32;;
62014;SDS011;47970;52.396;9.586;2022-12-07T00:23:39;16.63;;;7.20;;
62014;SDS011;47970;52.396;9.586;2022-12-07T00:26:11;15.65;;;7.72;;
62014;SDS011;47970;52.396;9.586;2022-12-07T00:28:37;12.80;;;7.50;;
62014;SDS011;47970;52.396;9.586;2022-12-07T00:31:06;15.35;;;7.95;;
62014;SDS011;47970;52.396;9.586;2022-12-07T00:33:32;15.63;;;7.53;;
62014;SDS011;47970;52.396;9.586;2022-12-07T00:35:58;15.48;;;8.07;;
62014;SDS011;47970;52.396;9.586;2022-12-07T00:38:24;13.77;;;7.00;;
62014;SDS011;47970;52.396;9.586;2022-12-07T00:40:59;17.65;;;7.85;;
62014;SDS011;47970;52.396;9.586;2022-12-07T00:43:25;15.48;;;8.13;;
62014;SDS011;47970;52.396;9.586;2022-12-07T00:45:51;14.82;;;8.00;;
62014;SDS011;47970;52.396;9.586;2022-12-07T00:48:16;14.15;;;7.68;;
62014;SDS011;47970;52.396;9.586;2022-12-07T00:50:41;18.67;;;7.57;;
62014;SDS011;47970;52.396;9.586;2022-12-07T00:53:06;14.47;;;7.67;;
62014;SDS011;47970;52.396;9.586;2022-12-07T00:55:35;15.70;;;8.53;;
62014;SDS011;47970;52.396;9.586;2022-12-07T00:58:00;13.77;;;7.35;;
62014;SDS011;47970;52.396;9.586;2022-12-07T01:00:25;17.08;;;8.88;;
62014;SDS011;47970;52.396;9.586;2022-12-07T01:02:50;13.80;;;8.03;;
62014;SDS011;47970;52.396;9.586;2022-12-07T01:05:16;17.23;;;8.77;;
62014;SDS011;47970;52.396;9.586;2022-12-07T01:07:41;15.40;;;7.77;;
62014;SDS011;47970;52.396;9.586;2022-12-07T01:10:06;13.80;;;7.17;;
62014;SDS011;47970;52.396;9.586;2022-12-07T01:12:32;16.55;;;7.95;;
62014;SDS011;47970;52.396;9.586;2022-12-07T01:14:57;15.40;;;8.02;;
62014;SDS011;47970;52.396;9.586;2022-12-07T01:17:22;16.70;;;8.90;;
62014;SDS011;47970;52.396;9.586;2022-12-07T01:19:47;17.17;;;9.00;;
62014;SDS011;47970;52.396;9.586;2022-12-07T01:22:13;15.10;;;8.13;;
62014;SDS011;47970;52.396;9.586;2022-12-07T01:24:38;14.30;;;7.95;;
62014;SDS011;47970;52.396;9.586;2022-12-07T01:27:03;14.48;;;8.23;;
62014;SDS011;47970;52.396;9.586;2022-12-07T01:29:28;14.38;;;8.02;;
62014;SDS011;47970;52.396;9.586;2022-12-07T01:31:53;15.67;;;8.33;;
62014;SDS011;47970;52.396;9.586;2022-12-07T01:34:19;16.93;;;9.00;;
62014;SDS011;47970;52.396;9.586;2022-12-07T01:36:44;15.75;;;9.02;;
62014;SDS011;47970;52.396;9.586;2022-12-07T01:39:09;15.48;;;8.32;;
62014;SDS011;47970;52.396;9.586;2022-12-07T01:41:36;15.07;;;8.48;;
62014;SDS011;47970;52.396;9.586;2022-12-07T01:44:09;14.70;;;7.93;;
62014;SDS011;47970;52.396;9.586;2022-12-07T01:46:34;17.42;;;8.95;;
62014;SDS011;47970;52.396;9.586;2022-12-07T01:48:59;13.87;;;8.60;;
62014;SDS011;47970;52.396;9.586;2022-12-07T01:51:25;18.83;;;8.77;;
62014;SDS011;47970;52.396;9.586;2022-12-07T01:53:51;17.60;;;8.20;;
62014;SDS011;47970;52.396;9.586;2022-12-07T01:56:17;13.90;;;7.45;;
62014;SDS011;47970;52.396;9.586;2022-12-07T01:58:44;15.50;;;7.70;;
62014;SDS011;47970;52.396;9.586;2022-12-07T02:01:09;16.42;;;8.23;;
62014;SDS011;47970;52.396;9.586;2022-12-07T02:03:36;14.75;;;8.18;;
62014;SDS011;47970;52.396;9.586;2022-12-07T02:06:02;14.80;;;7.35;;
62014;SDS011;47970;52.396;9.586;2022-12-07T02:08:29;14.43;;;7.70;;
62014;SDS011;47970;52.396;9.586;2022-12-07T02:10:54;15.68;;;8.77;;
62014;SDS011;47970;52.396;9.586;2022-12-07T02:13:24;15.40;;;8.18;;
62014;SDS011;47970;52.396;9.586;2022-12-07T02:28:30;14.50;;;7.57;;
62014;SDS011;47970;52.396;9.586;2022-12-07T02:30:57;16.30;;;7.63;;
62014;SDS011;47970;52.396;9.586;2022-12-07T02:33:35;15.30;;;7.78;;
62014;SDS011;47970;52.396;9.586;2022-12-07T02:36:08;14.63;;;6.30;;
62014;SDS011;47970;52.396;9.586;2022-12-07T02:38:55;19.45;;;7.25;;
62014;SDS011;47970;52.396;9.586;2022-12-07T02:41:22;15.27;;;7.53;;
62014;SDS011;47970;52.396;9.586;2022-12-07T02:43:52;14.23;;;6.57;;
62014;SDS011;47970;52.396;9.586;2022-12-07T02:46:23;12.98;;;7.07;;
62014;SDS011;47970;52.396;9.586;2022-12-07T02:48:50;11.48;;;6.18;;
62014;SDS011;47970;52.396;9.586;2022-12-07T02:51:17;13.40;;;6.68;;
62014;SDS011;47970;52.396;9.586;2022-12-07T02:53:42;10.27;;;5.47;;
62014;SDS011;47970;52.396;9.586;2022-12-07T03:01:26;13.43;;;6.75;;
62014;SDS011;47970;52.396;9.586;2022-12-07T03:04:36;13.85;;;6.35;;
62014;SDS011;47970;52.396;9.586;2022-12-07T03:06:47;10.00;;;6.13;;
62014;SDS011;47970;52.396;9.586;2022-12-07T03:09:15;9.93;;;5.82;;
62014;SDS011;47970;52.396;9.586;2022-12-07T03:11:50;10.75;;;6.00;;
62014;SDS011;47970;52.396;9.586;2022-12-07T03:14:24;9.70;;;5.40;;
62014;SDS011;47970;52.396;9.586;2022-12-07T03:16:55;13.80;;;6.70;;
62014;SDS011;47970;52.396;9.586;2022-12-07T03:19:22;9.05;;;5.55;;
62014;SDS011;47970;52.396;9.586;2022-12-07T03:21:51;11.73;;;4.72;;
62014;SDS011;47970;52.396;9.586;2022-12-07T03:24:19;12.95;;;5.00;;
62014;SDS011;47970;52.396;9.586;2022-12-07T03:26:49;15.88;;;5.70;;
62014;SDS011;47970;52.396;9.586;2022-12-07T03:29:29;9.18;;;5.05;;
62014;SDS011;47970;52.396;9.586;2022-12-07T03:39:22;13.68;;;6.00;;
62014;SDS011;47970;52.396;9.586;2022-12-07T03:41:50;12.88;;;5.05;;
62014;SDS011;47970;52.396;9.586;2022-12-07T03:44:16;8.38;;;4.20;;
62014;SDS011;47970;52.396;9.586;2022-12-07T03:49:31;10.43;;;4.78;;
62014;SDS011;47970;52.396;9.586;2022-12-07T03:52:02;16.38;;;5.20;;
62014;SDS011;47970;52.396;9.586;2022-12-07T03:54:34;8.27;;;4.22;;
62014;SDS011;47970;52.396;9.586;2022-12-07T03:57:01;9.00;;;4.50;;
62014;SDS011;47970;52.396;9.586;2022-12-07T03:59:27;9.38;;;5.63;;
62014;SDS011;47970;52.396;9.586;2022-12-07T04:01:54;12.20;;;5.45;;
62014;SDS011;47970;52.396;9.586;2022-12-07T04:04:19;10.57;;;5.25;;
62014;SDS011;47970;52.396;9.586;2022-12-07T04:06:45;13.48;;;5.65;;
62014;SDS011;47970;52.396;9.586;2022-12-07T04:09:10;10.70;;;5.03;;
62014;SDS011;47970;52.396;9.586;2022-12-07T04:11:35;12.93;;;5.70;;
62014;SDS011;47970;52.396;9.586;2022-12-07T04:14:00;10.30;;;5.37;;
62014;SDS011;47970;52.396;9.586;2022-12-07T04:16:50;9.90;;;5.07;;
62014;SDS011;47970;52.396;9.586;2022-12-07T04:19:16;8.55;;;5.15;;
62014;SDS011;47970;52.396;9.586;2022-12-07T04:21:42;13.10;;;6.25;;
62014;SDS011;47970;52.396;9.586;2022-12-07T04:24:07;15.35;;;6.13;;
62014;SDS011;47970;52.396;9.586;2022-12-07T04:26:32;16.10;;;5.43;;
62014;SDS011;47970;52.396;9.586;2022-12-07T04:28:58;9.15;;;4.93;;
62014;SDS011;47970;52.396;9.586;2022-12-07T04:31:23;13.07;;;5.37;;
62014;SDS011;47970;52.396;9.586;2022-12-07T04:33:48;13.20;;;5.50;;
62014;SDS011;47970;52.396;9.586;2022-12-07T04:36:13;9.82;;;5.43;;
62014;SDS011;47970;52.396;9.586;2022-12-07T04:38:39;10.90;;;5.57;;
62014;SDS011;47970;52.396;9.586;2022-12-07T04:41:07;10.85;;;5.35;;
62014;SDS011;47970;52.396;9.586;2022-12-07T04:43:36;8.82;;;5.40;;
62014;SDS011;47970;52.396;9.586;2022-12-07T04:46:01;11.52;;;5.30;;
62014;SDS011;47970;52.396;9.586;2022-12-07T04:48:27;12.20;;;4.70;;
62014;SDS011;47970;52.396;9.586;2022-12-07T04:50:52;15.63;;;5.13;;
62014;SDS011;47970;52.396;9.586;2022-12-07T04:53:17;16.63;;;4.65;;
62014;SDS011;47970;52.396;9.586;2022-12-07T04:55:43;11.98;;;4.55;;
62014;SDS011;47970;52.396;9.586;2022-12-07T04:58:09;14.40;;;5.43;;
62014;SDS011;47970;52.396;9.586;2022-12-07T05:00:34;9.17;;;4.90;;
62014;SDS011;47970;52.396;9.586;2022-12-07T05:02:59;15.23;;;5.43;;
62014;SDS011;47970;52.396;9.586;2022-12-07T05:05:24;17.40;;;5.43;;
62014;SDS011;47970;52.396;9.586;2022-12-07T05:07:50;7.07;;;4.40;;
62014;SDS011;47970;52.396;9.586;2022-12-07T05:10:15;21.90;;;5.45;;
62014;SDS011;47970;52.396;9.586;2022-12-07T05:12:40;12.23;;;5.10;;
62014;SDS011;47970;52.396;9.586;2022-12-07T05:15:05;13.90;;;4.70;;
62014;SDS011;47970;52.396;9.586;2022-12-07T05:17:31;11.10;;;4.47;;
62014;SDS011;47970;52.396;9.586;2022-12-07T05:19:56;11.53;;;4.63;;
62014;SDS011;47970;52.396;9.586;2022-12-07T05:22:21;8.07;;;4.47;;
62014;SDS011;47970;52.396;9.586;2022-12-07T05:24:46;13.02;;;4.95;;
62014;SDS011;47970;52.396;9.586;2022-12-07T05:27:12;11.20;;;5.27;;
62014;SDS011;47970;52.396;9.586;2022-12-07T05:29:37;8.82;;;4.68;;
62014;SDS011;47970;52.396;9.586;2022-12-07T05:32:02;15.07;;;4.95;;
62014;SDS011;47970;52.396;9.586;2022-12-07T05:34:27;13.23;;;4.90;;
62014;SDS011;47970;52.396;9.586;2022-12-07T05:36:53;11.90;;;4.72;;
62014;SDS011;47970;52.396;9.586;2022-12-07T05:39:18;16.37;;;5.13;;
62014;SDS011;47970;52.396;9.586;2022-12-07T05:41:43;12.93;;;5.28;;
62014;SDS011;47970;52.396;9.586;2022-12-07T05:44:27;11.60;;;4.93;;
62014;SDS011;47970;52.396;9.586;2022-12-07T05:46:52;14.73;;;4.97;;
62014;SDS011;47970;52.396;9.586;2022-12-07T05:49:17;8.57;;;4.30;;
62014;SDS011;47970;52.396;9.586;2022-12-07T05:51:42;9.40;;;4.32;;
62014;SDS011;47970;52.396;9.586;2022-12-07T05:54:08;15.30;;;5.07;;
62014;SDS011;47970;52.396;9.586;2022-12-07T05:56:33;10.20;;;3.97;;
62014;SDS011;47970;52.396;9.586;2022-12-07T05:58:58;11.30;;;4.00;;
62014;SDS011;47970;52.396;9.586;2022-12-07T06:01:42;9.82;;;3.67;;
62014;SDS011;47970;52.396;9.586;2022-12-07T06:04:07;8.05;;;3.40;;
62014;SDS011;47970;52.396;9.586;2022-12-07T06:06:33;6.13;;;3.13;;
62014;SDS011;47970;52.396;9.586;2022-12-07T06:08:58;9.50;;;3.80;;
62014;SDS011;47970;52.396;9.586;2022-12-07T06:11:23;8.98;;;3.30;;
62014;SDS011;47970;52.396;9.586;2022-12-07T06:14:07;9.10;;;3.33;;
62014;SDS011;47970;52.396;9.586;2022-12-07T06:16:32;11.38;;;2.95;;
62014;SDS011;47970;52.396;9.586;2022-12-07T06:18:57;5.65;;;2.85;;
62014;SDS011;47970;52.396;9.586;2022-12-07T06:21:23;8.30;;;3.22;;
62014;SDS011;47970;52.396;9.586;2022-12-07T06:23:50;8.52;;;3.60;;
62014;SDS011;47970;52.396;9.586;2022-12-07T06:26:15;9.03;;;2.93;;
62014;SDS011;47970;52.396;9.586;2022-12-07T06:28:41;7.57;;;2.47;;
62014;SDS011;47970;52.396;9.586;2022-12-07T06:31:06;7.32;;;2.65;;
62014;SDS011;47970;52.396;9.586;2022-12-07T06:33:32;7.28;;;2.50;;
62014;SDS011;47970;52.396;9.586;2022-12-07T06:35:57;10.15;;;2.50;;
62014;SDS011;47970;52.396;9.586;2022-12-07T06:38:22;8.85;;;2.92;;
62014;SDS011;47970;52.396;9.586;2022-12-07T06:40:48;4.60;;;2.15;;
62014;SDS011;47970;52.396;9.586;2022-12-07T06:43:13;6.63;;;2.50;;
62014;SDS011;47970;52.396;9.586;2022-12-07T06:45:38;5.13;;;1.95;;
62014;SDS011;47970;52.396;9.586;2022-12-07T06:48:05;7.38;;;2.15;;
62014;SDS011;47970;52.396;9.586;2022-12-07T06:50:30;6.20;;;2.30;;
62014;SDS011;47970;52.396;9.586;2022-12-07T06:52:55;12.07;;;2.60;;
62014;SDS011;47970;52.396;9.586;2022-12-07T06:55:20;7.13;;;2.63;;
62014;SDS011;47970;52.396;9.586;2022-12-07T06:57:45;5.50;;;2.07;;
62014;SDS011;47970;52.396;9.586;2022-12-07T07:00:11;4.95;;;2.13;;
62014;SDS011;47970;52.396;9.586;2022-12-07T07:02:36;6.28;;;1.75;;
62014;SDS011;47970;52.396;9.586;2022-12-07T07:05:02;8.20;;;2.00;;
62014;SDS011;47970;52.396;9.586;2022-12-07T07:07:28;6.75;;;1.80;;
62014;SDS011;47970;52.396;9.586;2022-12-07T07:09:53;9.63;;;1.95;;
62014;SDS011;47970;52.396;9.586;2022-12-07T07:12:18;8.23;;;1.87;;
62014;SDS011;47970;52.396;9.586;2022-12-07T07:14:46;4.55;;;1.80;;
62014;SDS011;47970;52.396;9.586;2022-12-07T07:17:12;7.73;;;1.53;;
62014;SDS011;47970;52.396;9.586;2022-12-07T07:19:37;2.92;;;1.88;;
62014;SDS011;47970;52.396;9.586;2022-12-07T07:22:03;8.27;;;1.70;;
62014;SDS011;47970;52.396;9.586;2022-12-07T07:24:28;8.20;;;1.20;;
62014;SDS011;47970;52.396;9.586;2022-12-07T07:26:53;5.40;;;1.57;;
62014;SDS011;47970;52.396;9.586;2022-12-07T07:29:19;4.88;;;1.95;;
62014;SDS011;47970;52.396;9.586;2022-12-07T07:31:44;7.40;;;2.83;;
62014;SDS011;47970;52.396;9.586;2022-12-07T07:34:09;10.07;;;2.20;;
62014;SDS011;47970;52.396;9.586;2022-12-07T07:36:35;6.28;;;1.85;;
62014;SDS011;47970;52.396;9.586;2022-12-07T07:39:00;5.83;;;1.17;;
62014;SDS011;47970;52.396;9.586;2022-12-07T07:41:25;5.47;;;1.53;;
62014;SDS011;47970;52.396;9.586;2022-12-07T07:43:50;4.53;;;1.83;;
62014;SDS011;47970;52.396;9.586;2022-12-07T07:46:15;1.93;;;1.00;;
62014;SDS011;47970;52.396;9.586;2022-12-07T07:48:41;3.22;;;1.30;;
62014;SDS011;47970;52.396;9.586;2022-12-07T07:51:06;4.10;;;1.03;;
62014;SDS011;47970;52.396;9.586;2022-12-07T07:53:32;5.32;;;1.45;;
62014;SDS011;47970;52.396;9.586;2022-12-07T07:55:57;4.22;;;1.20;;
62014;SDS011;47970;52.396;9.586;2022-12-07T07:58:23;6.38;;;1.30;;
62014;SDS011;47970;52.396;9.586;2022-12-07T08:00:48;2.40;;;0.95;;
62014;SDS011;47970;52.396;9.586;2022-12-07T08:03:13;4.07;;;1.30;;
62014;SDS011;47970;52.396;9.586;2022-12-07T08:05:39;2.38;;;0.80;;
62014;SDS011;47970;52.396;9.586;2022-12-07T08:08:04;4.30;;;0.80;;
62014;SDS011;47970;52.396;9.586;2022-12-07T08:10:29;7.90;;;1.35;;
62014;SDS011;47970;52.396;9.586;2022-12-07T08:12:57;2.53;;;0.90;;
62014;SDS011;47970;52.396;9.586;2022-12-07T08:15:41;6.30;;;1.15;;
62014;SDS011;47970;52.396;9.586;2022-12-07T08:18:07;7.07;;;0.88;;
62014;SDS011;47970;52.396;9.586;2022-12-07T08:20:33;7.07;;;1.10;;
62014;SDS011;47970;52.396;9.586;2022-12-07T08:22:58;6.78;;;1.80;;
62014;SDS011;47970;52.396;9.586;2022-12-07T08:25:24;4.45;;;1.40;;
62014;SDS011;47970;52.396;9.586;2022-12-07T08:27:50;7.78;;;2.33;;
62014;SDS011;47970;52.396;9.586;2022-12-07T08:30:15;5.72;;;1.55;;
62014;SDS011;47970;52.396;9.586;2022-12-07T08:32:41;3.63;;;1.20;;
62014;SDS011;47970;52.396;9.586;2022-12-07T08:35:06;4.72;;;1.70;;
62014;SDS011;47970;52.396;9.586;2022-12-07T08:37:31;7.35;;;1.10;;
62014;SDS011;47970;52.396;9.586;2022-12-07T08:39:57;5.18;;;1.30;;
62014;SDS011;47970;52.396;9.586;2022-12-07T08:42:22;3.03;;;1.07;;
62014;SDS011;47970;52.396;9.586;2022-12-07T08:47:17;3.00;;;0.80;;
62014;SDS011;47970;52.396;9.586;2022-12-07T08:49:43;4.45;;;1.20;;
62014;SDS011;47970;52.396;9.586;2022-12-07T08:52:10;3.85;;;0.75;;
62014;SDS011;47970;52.396;9.586;2022-12-07T08:54:36;3.83;;;1.15;;
62014;SDS011;47970;52.396;9.586;2022-12-07T08:57:03;3.70;;;1.00;;
62014;SDS011;47970;52.396;9.586;2022-12-07T08:59:29;3.75;;;0.90;;
62014;SDS011;47970;52.396;9.586;2022-12-07T09:01:54;5.88;;;1.58;;
62014;SDS011;47970;52.396;9.586;2022-12-07T09:04:20;7.30;;;1.23;;
62014;SDS011;47970;52.396;9.586;2022-12-07T09:06:45;4.60;;;0.90;;
62014;SDS011;47970;52.396;9.586;2022-12-07T09:09:11;3.50;;;1.30;;
62014;SDS011;47970;52.396;9.586;2022-12-07T09:11:36;6.53;;;1.27;;
62014;SDS011;47970;52.396;9.586;2022-12-07T09:14:01;4.37;;;1.13;;
62014;SDS011;47970;52.396;9.586;2022-12-07T09:16:27;9.10;;;1.30;;
62014;SDS011;47970;52.396;9.586;2022-12-07T09:18:52;3.65;;;1.00;;
62014;SDS011;47970;52.396;9.586;2022-12-07T09:21:17;9.23;;;0.82;;
62014;SDS011;47970;52.396;9.586;2022-12-07T09:23:42;2.47;;;0.65;;
62014;SDS011;47970;52.396;9.586;2022-12-07T09:26:08;6.25;;;0.95;;
62014;SDS011;47970;52.396;9.586;2022-12-07T09:28:33;1.30;;;0.50;;
62014;SDS011;47970;52.396;9.586;2022-12-07T09:30:58;6.53;;;0.85;;
62014;SDS011;47970;52.396;9.586;2022-12-07T09:33:23;1.70;;;0.57;;
62014;SDS011;47970;52.396;9.586;2022-12-07T09:35:49;1.97;;;0.60;;
62014;SDS011;47970;52.396;9.586;2022-12-07T09:38:15;1.98;;;0.70;;
62014;SDS011;47970;52.396;9.586;2022-12-07T09:40:40;1.42;;;0.60;;
62014;SDS011;47970;52.396;9.586;2022-12-07T09:43:18;3.28;;;0.90;;
62014;SDS011;47970;52.396;9.586;2022-12-07T09:45:44;4.78;;;0.80;;
62014;SDS011;47970;52.396;9.586;2022-12-07T09:48:17;4.35;;;0.60;;
62014;SDS011;47970;52.396;9.586;2022-12-07T09:50:43;6.63;;;1.20;;
62014;SDS011;47970;52.396;9.586;2022-12-07T09:53:10;1.90;;;0.70;;
62014;SDS011;47970;52.396;9.586;2022-12-07T09:55:38;5.47;;;0.80;;
62014;SDS011;47970;52.396;9.586;2022-12-07T09:58:05;3.33;;;0.80;;
62014;SDS011;47970;52.396;9.586;2022-12-07T10:00:31;2.85;;;0.70;;
62014;SDS011;47970;52.396;9.586;2022-12-07T10:02:57;5.40;;;0.90;;
62014;SDS011;47970;52.396;9.586;2022-12-07T10:05:35;9.70;;;2.58;;
62014;SDS011;47970;52.396;9.586;2022-12-07T10:08:02;4.60;;;1.13;;
62014;SDS011;47970;52.396;9.586;2022-12-07T10:10:31;4.53;;;0.70;;
62014;SDS011;47970;52.396;9.586;2022-12-07T10:13:04;2.53;;;0.77;;
62014;SDS011;47970;52.396;9.586;2022-12-07T10:18:17;3.30;;;1.00;;
62014;SDS011;47970;52.396;9.586;2022-12-07T10:20:43;4.28;;;0.68;;
62014;SDS011;47970;52.396;9.586;2022-12-07T10:23:13;2.33;;;0.70;;
62014;SDS011;47970;52.396;9.586;2022-12-07T10:25:39;3.17;;;1.30;;
62014;SDS011;47970;52.396;9.586;2022-12-07T10:31:17;3.15;;;0.90;;
62014;SDS011;47970;52.396;9.586;2022-12-07T10:33:29;4.05;;;0.88;;
62014;SDS011;47970;52.396;9.586;2022-12-07T10:35:55;4.38;;;0.65;;
62014;SDS011;47970;52.396;9.586;2022-12-07T10:38:20;2.07;;;0.90;;
62014;SDS011;47970;52.396;9.586;2022-12-07T10:40:45;3.85;;;0.85;;
62014;SDS011;47970;52.396;9.586;2022-12-07T10:48:24;9.93;;;1.25;;
62014;SDS011;47970;52.396;9.586;2022-12-07T11:16:34;5.15;;;1.10;;
62014;SDS011;47970;52.396;9.586;2022-12-07T11:19:06;2.08;;;1.02;;
62014;SDS011;47970;52.396;9.586;2022-12-07T11:34:39;2.83;;;0.68;;
62014;SDS011;47970;52.396;9.586;2022-12-07T11:37:13;3.15;;;0.80;;
62014;SDS011;47970;52.396;9.586;2022-12-07T11:39:47;0.88;;;0.65;;
62014;SDS011;47970;52.396;9.586;2022-12-07T11:42:16;3.85;;;0.93;;
62014;SDS011;47970;52.396;9.586;2022-12-07T11:47:28;2.42;;;1.15;;
62014;SDS011;47970;52.396;9.586;2022-12-07T11:54:49;5.55;;;1.52;;
62014;SDS011;47970;52.396;9.586;2022-12-07T11:57:20;5.55;;;2.00;;
62014;SDS011;47970;52.396;9.586;2022-12-07T11:59:51;4.60;;;2.00;;
62014;SDS011;47970;52.396;9.586;2022-12-07T12:02:22;9.13;;;1.95;;
62014;SDS011;47970;52.396;9.586;2022-12-07T12:04:59;6.30;;;1.25;;
62014;SDS011;47970;52.396;9.586;2022-12-07T12:07:27;15.00;;;4.15;;
62014;SDS011;47970;52.396;9.586;2022-12-07T12:09:53;12.90;;;5.45;;
62014;SDS011;47970;52.396;9.586;2022-12-07T12:14:51;7.97;;;2.13;;
62014;SDS011;47970;52.396;9.586;2022-12-07T12:20:05;7.97;;;2.72;;
62014;SDS011;47970;52.396;9.586;2022-12-07T12:25:50;11.88;;;6.22;;
62014;SDS011;47970;52.396;9.586;2022-12-07T12:30:45;8.05;;;2.53;;
62014;SDS011;47970;52.396;9.586;2022-12-07T12:33:29;10.52;;;2.70;;
62014;SDS011;47970;52.396;9.586;2022-12-07T12:41:11;11.40;;;1.33;;
62014;SDS011;47970;52.396;9.586;2022-12-07T12:43:56;6.68;;;1.33;;
62014;SDS011;47970;52.396;9.586;2022-12-07T12:51:46;7.15;;;1.50;;
62014;SDS011;47970;52.396;9.586;2022-12-07T12:56:47;10.32;;;1.77;;
62014;SDS011;47970;52.396;9.586;2022-12-07T13:01:54;5.50;;;1.20;;
62014;SDS011;47970;52.396;9.586;2022-12-07T13:04:24;9.18;;;1.98;;
62014;SDS011;47970;52.396;9.586;2022-12-07T13:06:50;7.78;;;1.35;;
62014;SDS011;47970;52.396;9.586;2022-12-07T13:09:18;9.90;;;1.98;;
62014;SDS011;47970;52.396;9.586;2022-12-07T13:11:44;11.10;;;1.45;;
62014;SDS011;47970;52.396;9.586;2022-12-07T13:16:54;5.82;;;1.25;;
62014;SDS011;47970;52.396;9.586;2022-12-07T13:19:53;5.33;;;1.83;;
62014;SDS011;47970;52.396;9.586;2022-12-07T13:24:58;4.07;;;1.23;;
62014;SDS011;47970;52.396;9.586;2022-12-07T13:27:25;11.30;;;1.13;;
62014;SDS011;47970;52.396;9.586;2022-12-07T13:29:51;4.35;;;1.20;;
62014;SDS011;47970;52.396;9.586;2022-12-07T13:32:22;3.90;;;1.10;;
62014;SDS011;47970;52.396;9.586;2022-12-07T13:34:48;19.63;;;9.48;;
62014;SDS011;47970;52.396;9.586;2022-12-07T13:37:14;16.35;;;7.20;;
62014;SDS011;47970;52.396;9.586;2022-12-07T13:39:48;4.43;;;1.70;;
62014;SDS011;47970;52.396;9.586;2022-12-07T13:42:33;6.70;;;2.63;;
62014;SDS011;47970;52.396;9.586;2022-12-07T13:44:59;5.43;;;2.55;;
62014;SDS011;47970;52.396;9.586;2022-12-07T13:47:33;8.70;;;2.40;;
62014;SDS011;47970;52.396;9.586;2022-12-07T13:50:00;11.93;;;2.65;;
62014;SDS011;47970;52.396;9.586;2022-12-07T13:52:26;5.22;;;2.45;;
62014;SDS011;47970;52.396;9.586;2022-12-07T13:54:56;3.30;;;1.10;;
62014;SDS011;47970;52.396;9.586;2022-12-07T13:57:22;6.72;;;1.20;;
62014;SDS011;47970;52.396;9.586;2022-12-07T13:59:49;8.43;;;1.00;;
62014;SDS011;47970;52.396;9.586;2022-12-07T14:02:18;11.85;;;1.30;;
62014;SDS011;47970;52.396;9.586;2022-12-07T14:04:43;4.28;;;1.00;;
62014;SDS011;47970;52.396;9.586;2022-12-07T14:07:27;5.50;;;0.83;;
62014;SDS011;47970;52.396;9.586;2022-12-07T14:09:57;2.15;;;0.73;;
62014;SDS011;47970;52.396;9.586;2022-12-07T14:12:23;8.05;;;1.20;;
62014;SDS011;47970;52.396;9.586;2022-12-07T14:14:49;3.95;;;1.13;;
62014;SDS011;47970;52.396;9.586;2022-12-07T14:17:18;7.43;;;0.93;;
62014;SDS011;47970;52.396;9.586;2022-12-07T14:19:48;6.18;;;1.20;;
62014;SDS011;47970;52.396;9.586;2022-12-07T14:22:24;7.15;;;0.88;;
62014;SDS011;47970;52.396;9.586;2022-12-07T14:24:50;2.20;;;0.70;;
62014;SDS011;47970;52.396;9.586;2022-12-07T14:27:22;6.97;;;1.10;;
62014;SDS011;47970;52.396;9.586;2022-12-07T14:29:47;6.20;;;0.90;;
62014;SDS011;47970;52.396;9.586;2022-12-07T14:34:53;5.55;;;0.80;;
62014;SDS011;47970;52.396;9.586;2022-12-07T14:37:18;5.32;;;0.85;;
62014;SDS011;47970;52.396;9.586;2022-12-07T14:39:43;5.13;;;1.30;;
62014;SDS011;47970;52.396;9.586;2022-12-07T14:42:08;10.63;;;4.00;;
62014;SDS011;47970;52.396;9.586;2022-12-07T14:44:34;10.77;;;6.60;;
62014;SDS011;47970;52.396;9.586;2022-12-07T14:46:59;14.67;;;2.37;;
62014;SDS011;47970;52.396;9.586;2022-12-07T14:49:24;5.82;;;1.45;;
62014;SDS011;47970;52.396;9.586;2022-12-07T14:51:49;3.85;;;1.42;;
62014;SDS011;47970;52.396;9.586;2022-12-07T14:54:18;5.90;;;1.15;;
62014;SDS011;47970;52.396;9.586;2022-12-07T14:56:44;11.18;;;1.55;;
62014;SDS011;47970;52.396;9.586;2022-12-07T14:59:10;2.33;;;1.35;;
62014;SDS011;47970;52.396;9.586;2022-12-07T15:01:36;8.07;;;1.92;;
62014;SDS011;47970;52.396;9.586;2022-12-07T15:04:01;6.22;;;1.73;;
62014;SDS011;47970;52.396;9.586;2022-12-07T15:06:27;3.97;;;1.50;;
62014;SDS011;47970;52.396;9.586;2022-12-07T15:08:52;6.00;;;1.37;;
62014;SDS011;47970;52.396;9.586;2022-12-07T15:11:17;7.80;;;1.67;;
62014;SDS011;47970;52.396;9.586;2022-12-07T15:13:43;7.40;;;1.67;;
62014;SDS011;47970;52.396;9.586;2022-12-07T15:16:26;7.68;;;1.77;;
62014;SDS011;47970;52.396;9.586;2022-12-07T15:18:52;12.50;;;1.77;;
62014;SDS011;47970;52.396;9.586;2022-12-07T15:21:17;7.40;;;1.40;;
62014;SDS011;47970;52.396;9.586;2022-12-07T15:23:42;9.88;;;1.35;;
62014;SDS011;47970;52.396;9.586;2022-12-07T15:26:09;8.27;;;1.80;;
62014;SDS011;47970;52.396;9.586;2022-12-07T15:28:34;12.73;;;2.42;;
62014;SDS011;47970;52.396;9.586;2022-12-07T15:31:00;6.28;;;2.30;;
62014;SDS011;47970;52.396;9.586;2022-12-07T15:33:25;12.43;;;3.90;;
62014;SDS011;47970;52.396;9.586;2022-12-07T15:35:50;5.50;;;1.57;;
62014;SDS011;47970;52.396;9.586;2022-12-07T15:38:15;8.85;;;1.60;;
62014;SDS011;47970;52.396;9.586;2022-12-07T15:40:41;4.22;;;1.60;;
62014;SDS011;47970;52.396;9.586;2022-12-07T15:43:08;8.47;;;1.57;;
62014;SDS011;47970;52.396;9.586;2022-12-07T15:45:53;3.75;;;1.27;;
62014;SDS011;47970;52.396;9.586;2022-12-07T15:48:18;5.03;;;1.40;;
62014;SDS011;47970;52.396;9.586;2022-12-07T15:50:43;6.10;;;1.57;;
62014;SDS011;47970;52.396;9.586;2022-12-07T15:53:08;8.83;;;2.23;;
62014;SDS011;47970;52.396;9.586;2022-12-07T15:55:33;6.90;;;2.13;;
62014;SDS011;47970;52.396;9.586;2022-12-07T15:57:59;10.63;;;1.90;;
62014;SDS011;47970;52.396;9.586;2022-12-07T16:00:25;8.40;;;2.25;;
62014;SDS011;47970;52.396;9.586;2022-12-07T16:02:50;14.00;;;2.50;;
62014;SDS011;47970;52.396;9.586;2022-12-07T16:05:15;21.03;;;6.10;;
62014;SDS011;47970;52.396;9.586;2022-12-07T16:07:40;9.27;;;2.42;;
62014;SDS011;47970;52.396;9.586;2022-12-07T16:10:06;10.97;;;4.07;;
62014;SDS011;47970;52.396;9.586;2022-12-07T16:12:31;7.78;;;2.80;;
62014;SDS011;47970;52.396;9.586;2022-12-07T16:14:56;6.73;;;2.60;;
62014;SDS011;47970;52.396;9.586;2022-12-07T16:17:21;9.93;;;2.90;;
62014;SDS011;47970;52.396;9.586;2022-12-07T16:19:46;5.70;;;2.37;;
62014;SDS011;47970;52.396;9.586;2022-12-07T16:22:12;6.17;;;2.83;;
62014;SDS011;47970;52.396;9.586;2022-12-07T16:24:37;8.70;;;3.17;;
62014;SDS011;47970;52.396;9.586;2022-12-07T16:27:02;8.37;;;2.73;;
62014;SDS011;47970;52.396;9.586;2022-12-07T16:29:27;9.03;;;2.40;;
62014;SDS011;47970;52.396;9.586;2022-12-07T16:31:53;5.97;;;3.05;;
62014;SDS011;47970;52.396;9.586;2022-12-07T16:34:18;9.60;;;2.20;;
62014;SDS011;47970;52.396;9.586;2022-12-07T16:36:43;5.25;;;2.35;;
62014;SDS011;47970;52.396;9.586;2022-12-07T16:39:09;7.80;;;2.33;;
62014;SDS011;47970;52.396;9.586;2022-12-07T16:41:34;8.23;;;2.38;;
62014;SDS011;47970;52.396;9.586;2022-12-07T16:44:06;8.03;;;3.00;;
62014;SDS011;47970;52.396;9.586;2022-12-07T16:46:32;7.32;;;2.30;;